sensor_id;sensor_type;location;lat;lon;timestamp;P1;durP1;ratioP1;P2;durP2;ratioP2
26656;SDS011;14279;50.010;8.260;2023-05-31T00:02:20;10.57;;;2.93;;
26656;SDS011;14279;50.010;8.260;2023-05-31T00:04:45;10.00;;;3.00;;
26656;SDS011;14279;50.010;8.260;2023-05-31T00:07:11;12.83;;;3.30;;
26656;SDS011;14279;50.010;8.260;2023-05-31T00:09:36;9.93;;;3.27;;
26656;SDS011;14279;50.010;8.260;2023-05-31T00:12:01;8.97;;;2.93;;
26656;SDS011;14279;50.010;8.260;2023-05-31T00:14:27;21.27;;;3.40;;
26656;SDS011;14279;50.010;8.260;2023-05-31T00:16:52;10.97;;;3.00;;
26656;SDS011;14279;50.010;8.260;2023-05-31T00:19:17;9.20;;;3.60;;
26656;SDS011;14279;50.010;8.260;2023-05-31T00:21:43;9.00;;;3.37;;
26656;SDS011;14279;50.010;8.260;2023-05-31T00:24:12;10.63;;;2.70;;
26656;SDS011;14279;50.010;8.260;2023-05-31T00:26:38;7.47;;;2.80;;
26656;SDS011;14279;50.010;8.260;2023-05-31T00:29:03;14.47;;;3.10;;
26656;SDS011;14279;50.010;8.260;2023-05-31T00:31:29;10.53;;;3.20;;
26656;SDS011;14279;50.010;8.260;2023-05-31T00:33:54;15.43;;;3.33;;
26656;SDS011;14279;50.010;8.260;2023-05-31T00:36:21;20.30;;;3.50;;
26656;SDS011;14279;50.010;8.260;2023-05-31T00:38:46;7.13;;;2.80;;
26656;SDS011;14279;50.010;8.260;2023-05-31T00:41:12;11.53;;;2.43;;
26656;SDS011;14279;50.010;8.260;2023-05-31T00:43:37;12.03;;;3.47;;
26656;SDS011;14279;50.010;8.260;2023-05-31T00:46:03;13.77;;;3.33;;
26656;SDS011;14279;50.010;8.260;2023-05-31T00:48:29;9.53;;;2.90;;
26656;SDS011;14279;50.010;8.260;2023-05-31T00:50:54;11.57;;;3.17;;
26656;SDS011;14279;50.010;8.260;2023-05-31T00:53:21;17.10;;;3.30;;
26656;SDS011;14279;50.010;8.260;2023-05-31T00:55:47;10.57;;;2.80;;
26656;SDS011;14279;50.010;8.260;2023-05-31T00:58:14;9.67;;;3.43;;
26656;SDS011;14279;50.010;8.260;2023-05-31T01:00:40;16.03;;;3.07;;
26656;SDS011;14279;50.010;8.260;2023-05-31T01:03:05;8.43;;;3.03;;
26656;SDS011;14279;50.010;8.260;2023-05-31T01:05:34;7.03;;;2.23;;
26656;SDS011;14279;50.010;8.260;2023-05-31T01:08:00;9.53;;;3.20;;
26656;SDS011;14279;50.010;8.260;2023-05-31T01:10:28;9.60;;;3.37;;
26656;SDS011;14279;50.010;8.260;2023-05-31T01:13:17;12.33;;;3.30;;
26656;SDS011;14279;50.010;8.260;2023-05-31T01:15:56;12.70;;;2.73;;
26656;SDS011;14279;50.010;8.260;2023-05-31T01:18:31;8.20;;;3.10;;
26656;SDS011;14279;50.010;8.260;2023-05-31T01:21:02;11.20;;;2.83;;
26656;SDS011;14279;50.010;8.260;2023-05-31T01:29:10;20.97;;;3.23;;
26656;SDS011;14279;50.010;8.260;2023-05-31T01:31:38;11.83;;;3.20;;
26656;SDS011;14279;50.010;8.260;2023-05-31T01:34:06;9.30;;;3.07;;
26656;SDS011;14279;50.010;8.260;2023-05-31T01:36:32;6.37;;;3.00;;
26656;SDS011;14279;50.010;8.260;2023-05-31T01:38:57;10.33;;;3.30;;
26656;SDS011;14279;50.010;8.260;2023-05-31T01:41:23;6.33;;;2.50;;
26656;SDS011;14279;50.010;8.260;2023-05-31T01:43:51;9.03;;;3.13;;
26656;SDS011;14279;50.010;8.260;2023-05-31T01:46:17;14.90;;;3.20;;
26656;SDS011;14279;50.010;8.260;2023-05-31T01:48:44;8.90;;;3.10;;
26656;SDS011;14279;50.010;8.260;2023-05-31T01:51:11;15.30;;;3.40;;
26656;SDS011;14279;50.010;8.260;2023-05-31T01:53:39;15.43;;;3.20;;
26656;SDS011;14279;50.010;8.260;2023-05-31T01:56:05;20.33;;;3.27;;
26656;SDS011;14279;50.010;8.260;2023-05-31T01:58:33;8.60;;;3.40;;
26656;SDS011;14279;50.010;8.260;2023-05-31T02:01:01;8.17;;;2.80;;
26656;SDS011;14279;50.010;8.260;2023-05-31T02:03:27;13.43;;;3.30;;
26656;SDS011;14279;50.010;8.260;2023-05-31T02:05:53;8.30;;;2.70;;
26656;SDS011;14279;50.010;8.260;2023-05-31T02:08:19;8.40;;;2.77;;
26656;SDS011;14279;50.010;8.260;2023-05-31T02:10:45;10.87;;;2.80;;
26656;SDS011;14279;50.010;8.260;2023-05-31T02:13:10;11.93;;;3.00;;
26656;SDS011;14279;50.010;8.260;2023-05-31T02:15:35;9.23;;;3.27;;
26656;SDS011;14279;50.010;8.260;2023-05-31T02:18:02;7.90;;;3.07;;
26656;SDS011;14279;50.010;8.260;2023-05-31T02:20:28;7.07;;;2.80;;
26656;SDS011;14279;50.010;8.260;2023-05-31T02:22:53;18.33;;;3.30;;
26656;SDS011;14279;50.010;8.260;2023-05-31T02:25:18;12.10;;;2.77;;
26656;SDS011;14279;50.010;8.260;2023-05-31T02:27:43;10.23;;;2.90;;
26656;SDS011;14279;50.010;8.260;2023-05-31T02:30:09;9.30;;;3.07;;
26656;SDS011;14279;50.010;8.260;2023-05-31T02:32:34;5.50;;;2.67;;
26656;SDS011;14279;50.010;8.260;2023-05-31T02:35:06;12.83;;;3.40;;
26656;SDS011;14279;50.010;8.260;2023-05-31T02:37:36;13.47;;;3.50;;
26656;SDS011;14279;50.010;8.260;2023-05-31T02:40:03;12.17;;;3.20;;
26656;SDS011;14279;50.010;8.260;2023-05-31T02:42:37;9.10;;;3.10;;
26656;SDS011;14279;50.010;8.260;2023-05-31T02:45:05;8.73;;;2.60;;
26656;SDS011;14279;50.010;8.260;2023-05-31T02:47:31;12.77;;;3.70;;
26656;SDS011;14279;50.010;8.260;2023-05-31T02:49:56;16.10;;;3.30;;
26656;SDS011;14279;50.010;8.260;2023-05-31T02:52:22;7.30;;;2.67;;
26656;SDS011;14279;50.010;8.260;2023-05-31T02:54:48;9.53;;;2.53;;
26656;SDS011;14279;50.010;8.260;2023-05-31T02:57:14;10.60;;;3.07;;
26656;SDS011;14279;50.010;8.260;2023-05-31T02:59:39;9.20;;;2.87;;
26656;SDS011;14279;50.010;8.260;2023-05-31T03:02:05;6.17;;;2.77;;
26656;SDS011;14279;50.010;8.260;2023-05-31T03:04:30;14.53;;;2.90;;
26656;SDS011;14279;50.010;8.260;2023-05-31T03:06:56;12.53;;;3.00;;
26656;SDS011;14279;50.010;8.260;2023-05-31T03:09:22;13.43;;;3.20;;
26656;SDS011;14279;50.010;8.260;2023-05-31T03:11:47;10.00;;;3.00;;
26656;SDS011;14279;50.010;8.260;2023-05-31T03:14:13;8.00;;;3.10;;
26656;SDS011;14279;50.010;8.260;2023-05-31T03:16:38;12.03;;;3.00;;
26656;SDS011;14279;50.010;8.260;2023-05-31T03:19:03;11.20;;;3.20;;
26656;SDS011;14279;50.010;8.260;2023-05-31T03:21:29;9.30;;;2.70;;
26656;SDS011;14279;50.010;8.260;2023-05-31T03:23:55;5.60;;;2.70;;
26656;SDS011;14279;50.010;8.260;2023-05-31T03:26:20;10.60;;;3.30;;
26656;SDS011;14279;50.010;8.260;2023-05-31T03:28:45;13.47;;;3.40;;
26656;SDS011;14279;50.010;8.260;2023-05-31T03:31:10;7.70;;;2.63;;
26656;SDS011;14279;50.010;8.260;2023-05-31T03:33:36;13.87;;;3.27;;
26656;SDS011;14279;50.010;8.260;2023-05-31T03:36:02;10.30;;;3.17;;
26656;SDS011;14279;50.010;8.260;2023-05-31T03:38:28;8.53;;;3.00;;
26656;SDS011;14279;50.010;8.260;2023-05-31T03:40:53;9.20;;;3.27;;
26656;SDS011;14279;50.010;8.260;2023-05-31T03:43:19;11.90;;;3.27;;
26656;SDS011;14279;50.010;8.260;2023-05-31T03:45:44;7.80;;;2.67;;
26656;SDS011;14279;50.010;8.260;2023-05-31T03:48:10;7.37;;;2.47;;
26656;SDS011;14279;50.010;8.260;2023-05-31T03:50:35;11.80;;;2.70;;
26656;SDS011;14279;50.010;8.260;2023-05-31T03:53:00;8.60;;;2.93;;
26656;SDS011;14279;50.010;8.260;2023-05-31T03:55:26;13.77;;;3.10;;
26656;SDS011;14279;50.010;8.260;2023-05-31T03:57:51;12.37;;;3.20;;
26656;SDS011;14279;50.010;8.260;2023-05-31T04:00:16;16.63;;;3.17;;
26656;SDS011;14279;50.010;8.260;2023-05-31T04:02:42;9.07;;;2.80;;
26656;SDS011;14279;50.010;8.260;2023-05-31T04:05:07;9.03;;;2.87;;
26656;SDS011;14279;50.010;8.260;2023-05-31T04:07:32;7.50;;;2.60;;
26656;SDS011;14279;50.010;8.260;2023-05-31T04:09:58;8.73;;;2.30;;
26656;SDS011;14279;50.010;8.260;2023-05-31T04:12:23;12.63;;;3.40;;
26656;SDS011;14279;50.010;8.260;2023-05-31T04:14:48;8.20;;;3.33;;
26656;SDS011;14279;50.010;8.260;2023-05-31T04:17:13;6.67;;;2.73;;
26656;SDS011;14279;50.010;8.260;2023-05-31T04:19:38;23.23;;;3.57;;
26656;SDS011;14279;50.010;8.260;2023-05-31T04:22:04;7.77;;;2.73;;
26656;SDS011;14279;50.010;8.260;2023-05-31T04:24:29;7.20;;;2.37;;
26656;SDS011;14279;50.010;8.260;2023-05-31T04:26:54;11.70;;;3.50;;
26656;SDS011;14279;50.010;8.260;2023-05-31T04:29:20;12.03;;;3.10;;
26656;SDS011;14279;50.010;8.260;2023-05-31T04:31:46;6.80;;;2.73;;
26656;SDS011;14279;50.010;8.260;2023-05-31T04:34:11;11.10;;;3.10;;
26656;SDS011;14279;50.010;8.260;2023-05-31T04:36:43;8.13;;;3.33;;
26656;SDS011;14279;50.010;8.260;2023-05-31T04:39:13;10.60;;;3.30;;
26656;SDS011;14279;50.010;8.260;2023-05-31T04:41:40;6.93;;;2.63;;
26656;SDS011;14279;50.010;8.260;2023-05-31T04:44:06;11.07;;;3.07;;
26656;SDS011;14279;50.010;8.260;2023-05-31T04:46:31;4.77;;;2.60;;
26656;SDS011;14279;50.010;8.260;2023-05-31T04:48:57;6.03;;;2.70;;
26656;SDS011;14279;50.010;8.260;2023-05-31T04:51:22;11.93;;;3.03;;
26656;SDS011;14279;50.010;8.260;2023-05-31T04:53:48;9.17;;;3.23;;
26656;SDS011;14279;50.010;8.260;2023-05-31T04:56:13;17.33;;;3.23;;
26656;SDS011;14279;50.010;8.260;2023-05-31T04:58:39;9.50;;;2.67;;
26656;SDS011;14279;50.010;8.260;2023-05-31T05:01:04;3.87;;;2.33;;
26656;SDS011;14279;50.010;8.260;2023-05-31T05:03:30;9.67;;;3.43;;
26656;SDS011;14279;50.010;8.260;2023-05-31T05:05:56;16.93;;;3.20;;
26656;SDS011;14279;50.010;8.260;2023-05-31T05:08:21;7.63;;;3.63;;
26656;SDS011;14279;50.010;8.260;2023-05-31T05:10:47;4.77;;;2.37;;
26656;SDS011;14279;50.010;8.260;2023-05-31T05:13:13;12.10;;;2.77;;
26656;SDS011;14279;50.010;8.260;2023-05-31T05:15:40;4.33;;;2.67;;
26656;SDS011;14279;50.010;8.260;2023-05-31T05:18:06;10.57;;;3.07;;
26656;SDS011;14279;50.010;8.260;2023-05-31T05:20:31;10.70;;;2.70;;
26656;SDS011;14279;50.010;8.260;2023-05-31T05:22:57;7.00;;;2.43;;
26656;SDS011;14279;50.010;8.260;2023-05-31T05:25:22;12.90;;;2.90;;
26656;SDS011;14279;50.010;8.260;2023-05-31T05:27:47;6.73;;;2.80;;
26656;SDS011;14279;50.010;8.260;2023-05-31T05:30:13;8.20;;;2.20;;
26656;SDS011;14279;50.010;8.260;2023-05-31T05:32:38;11.50;;;3.00;;
26656;SDS011;14279;50.010;8.260;2023-05-31T05:35:04;11.30;;;2.27;;
26656;SDS011;14279;50.010;8.260;2023-05-31T05:37:30;11.83;;;3.10;;
26656;SDS011;14279;50.010;8.260;2023-05-31T05:39:56;8.13;;;2.90;;
26656;SDS011;14279;50.010;8.260;2023-05-31T05:42:21;5.93;;;2.80;;
26656;SDS011;14279;50.010;8.260;2023-05-31T05:44:46;7.20;;;2.70;;
26656;SDS011;14279;50.010;8.260;2023-05-31T05:47:12;5.20;;;2.50;;
26656;SDS011;14279;50.010;8.260;2023-05-31T05:49:37;11.60;;;3.40;;
26656;SDS011;14279;50.010;8.260;2023-05-31T05:52:03;5.47;;;1.90;;
26656;SDS011;14279;50.010;8.260;2023-05-31T05:54:28;7.47;;;3.07;;
26656;SDS011;14279;50.010;8.260;2023-05-31T05:56:53;31.77;;;3.23;;
26656;SDS011;14279;50.010;8.260;2023-05-31T05:59:19;5.93;;;2.57;;
26656;SDS011;14279;50.010;8.260;2023-05-31T06:01:44;4.97;;;3.07;;
26656;SDS011;14279;50.010;8.260;2023-05-31T06:04:11;9.30;;;2.70;;
26656;SDS011;14279;50.010;8.260;2023-05-31T06:06:36;9.50;;;2.30;;
26656;SDS011;14279;50.010;8.260;2023-05-31T06:09:01;8.63;;;2.40;;
26656;SDS011;14279;50.010;8.260;2023-05-31T06:11:26;10.87;;;2.77;;
26656;SDS011;14279;50.010;8.260;2023-05-31T06:13:52;7.13;;;2.23;;
26656;SDS011;14279;50.010;8.260;2023-05-31T06:16:21;9.50;;;2.50;;
26656;SDS011;14279;50.010;8.260;2023-05-31T06:18:47;6.23;;;2.90;;
26656;SDS011;14279;50.010;8.260;2023-05-31T06:21:12;7.00;;;2.50;;
26656;SDS011;14279;50.010;8.260;2023-05-31T06:23:37;10.00;;;2.90;;
26656;SDS011;14279;50.010;8.260;2023-05-31T06:26:03;6.60;;;2.60;;
26656;SDS011;14279;50.010;8.260;2023-05-31T06:28:28;7.87;;;3.03;;
26656;SDS011;14279;50.010;8.260;2023-05-31T06:30:53;10.17;;;3.17;;
26656;SDS011;14279;50.010;8.260;2023-05-31T06:33:19;14.37;;;3.40;;
26656;SDS011;14279;50.010;8.260;2023-05-31T06:35:44;10.80;;;2.60;;
26656;SDS011;14279;50.010;8.260;2023-05-31T06:38:10;6.13;;;2.77;;
26656;SDS011;14279;50.010;8.260;2023-05-31T06:40:41;7.60;;;2.67;;
26656;SDS011;14279;50.010;8.260;2023-05-31T06:43:07;11.23;;;2.30;;
26656;SDS011;14279;50.010;8.260;2023-05-31T06:45:33;16.83;;;3.10;;
26656;SDS011;14279;50.010;8.260;2023-05-31T06:47:58;5.13;;;2.40;;
26656;SDS011;14279;50.010;8.260;2023-05-31T06:50:23;12.97;;;3.03;;
26656;SDS011;14279;50.010;8.260;2023-05-31T06:52:49;6.57;;;2.53;;
26656;SDS011;14279;50.010;8.260;2023-05-31T06:55:14;6.17;;;2.63;;
26656;SDS011;14279;50.010;8.260;2023-05-31T06:57:39;7.80;;;2.60;;
26656;SDS011;14279;50.010;8.260;2023-05-31T07:00:04;5.03;;;2.30;;
26656;SDS011;14279;50.010;8.260;2023-05-31T07:02:32;8.87;;;2.53;;
26656;SDS011;14279;50.010;8.260;2023-05-31T07:04:57;8.73;;;2.70;;
26656;SDS011;14279;50.010;8.260;2023-05-31T07:07:24;7.40;;;2.70;;
26656;SDS011;14279;50.010;8.260;2023-05-31T07:09:50;11.47;;;2.97;;
26656;SDS011;14279;50.010;8.260;2023-05-31T07:12:16;9.53;;;3.20;;
26656;SDS011;14279;50.010;8.260;2023-05-31T07:14:41;7.50;;;2.57;;
26656;SDS011;14279;50.010;8.260;2023-05-31T07:17:06;4.53;;;2.50;;
26656;SDS011;14279;50.010;8.260;2023-05-31T07:19:32;6.27;;;2.97;;
26656;SDS011;14279;50.010;8.260;2023-05-31T07:21:57;9.00;;;3.60;;
26656;SDS011;14279;50.010;8.260;2023-05-31T07:24:22;7.60;;;3.27;;
26656;SDS011;14279;50.010;8.260;2023-05-31T07:26:47;13.50;;;2.30;;
26656;SDS011;14279;50.010;8.260;2023-05-31T07:29:12;8.10;;;3.13;;
26656;SDS011;14279;50.010;8.260;2023-05-31T07:31:38;7.00;;;2.60;;
26656;SDS011;14279;50.010;8.260;2023-05-31T07:34:03;6.77;;;2.77;;
26656;SDS011;14279;50.010;8.260;2023-05-31T07:36:28;9.07;;;2.40;;
26656;SDS011;14279;50.010;8.260;2023-05-31T07:38:54;9.27;;;3.10;;
26656;SDS011;14279;50.010;8.260;2023-05-31T07:41:22;7.97;;;2.73;;
26656;SDS011;14279;50.010;8.260;2023-05-31T07:43:47;7.07;;;2.63;;
26656;SDS011;14279;50.010;8.260;2023-05-31T07:46:12;10.30;;;2.53;;
26656;SDS011;14279;50.010;8.260;2023-05-31T07:48:38;4.97;;;2.53;;
26656;SDS011;14279;50.010;8.260;2023-05-31T07:51:03;3.23;;;2.07;;
26656;SDS011;14279;50.010;8.260;2023-05-31T07:53:28;6.47;;;2.87;;
26656;SDS011;14279;50.010;8.260;2023-05-31T07:55:54;7.23;;;3.03;;
26656;SDS011;14279;50.010;8.260;2023-05-31T07:58:19;10.73;;;3.40;;
26656;SDS011;14279;50.010;8.260;2023-05-31T08:00:44;6.00;;;2.80;;
26656;SDS011;14279;50.010;8.260;2023-05-31T08:03:10;6.63;;;2.67;;
26656;SDS011;14279;50.010;8.260;2023-05-31T08:05:35;9.50;;;2.70;;
26656;SDS011;14279;50.010;8.260;2023-05-31T08:08:00;8.67;;;2.47;;
26656;SDS011;14279;50.010;8.260;2023-05-31T08:10:25;5.00;;;2.77;;
26656;SDS011;14279;50.010;8.260;2023-05-31T08:12:51;5.27;;;2.60;;
26656;SDS011;14279;50.010;8.260;2023-05-31T08:15:16;6.00;;;2.37;;
26656;SDS011;14279;50.010;8.260;2023-05-31T08:17:42;6.80;;;2.73;;
26656;SDS011;14279;50.010;8.260;2023-05-31T08:20:08;13.93;;;2.63;;
26656;SDS011;14279;50.010;8.260;2023-05-31T08:22:38;7.50;;;2.23;;
26656;SDS011;14279;50.010;8.260;2023-05-31T08:25:04;10.70;;;3.30;;
26656;SDS011;14279;50.010;8.260;2023-05-31T08:27:30;11.83;;;3.00;;
26656;SDS011;14279;50.010;8.260;2023-05-31T08:29:55;3.67;;;2.33;;
26656;SDS011;14279;50.010;8.260;2023-05-31T08:32:20;7.40;;;2.97;;
26656;SDS011;14279;50.010;8.260;2023-05-31T08:34:46;8.23;;;2.70;;
26656;SDS011;14279;50.010;8.260;2023-05-31T08:37:11;4.30;;;2.70;;
26656;SDS011;14279;50.010;8.260;2023-05-31T08:39:37;6.03;;;2.37;;
26656;SDS011;14279;50.010;8.260;2023-05-31T08:42:03;9.20;;;3.07;;
26656;SDS011;14279;50.010;8.260;2023-05-31T08:44:31;10.07;;;2.27;;
26656;SDS011;14279;50.010;8.260;2023-05-31T08:47:12;8.60;;;2.20;;
26656;SDS011;14279;50.010;8.260;2023-05-31T08:49:42;12.73;;;3.10;;
26656;SDS011;14279;50.010;8.260;2023-05-31T08:52:09;7.77;;;2.47;;
26656;SDS011;14279;50.010;8.260;2023-05-31T08:54:35;9.73;;;2.70;;
26656;SDS011;14279;50.010;8.260;2023-05-31T08:57:06;10.60;;;2.80;;
26656;SDS011;14279;50.010;8.260;2023-05-31T08:59:32;7.27;;;2.50;;
26656;SDS011;14279;50.010;8.260;2023-05-31T09:01:58;5.93;;;2.17;;
26656;SDS011;14279;50.010;8.260;2023-05-31T09:04:25;10.40;;;2.87;;
26656;SDS011;14279;50.010;8.260;2023-05-31T09:06:51;8.73;;;2.63;;
26656;SDS011;14279;50.010;8.260;2023-05-31T09:09:16;5.23;;;2.17;;
26656;SDS011;14279;50.010;8.260;2023-05-31T09:11:41;6.50;;;2.70;;
26656;SDS011;14279;50.010;8.260;2023-05-31T09:14:07;11.60;;;2.90;;
26656;SDS011;14279;50.010;8.260;2023-05-31T09:16:35;3.93;;;2.10;;
26656;SDS011;14279;50.010;8.260;2023-05-31T09:19:02;8.50;;;2.43;;
26656;SDS011;14279;50.010;8.260;2023-05-31T09:21:33;5.20;;;2.50;;
26656;SDS011;14279;50.010;8.260;2023-05-31T09:24:06;4.53;;;2.27;;
26656;SDS011;14279;50.010;8.260;2023-05-31T09:26:32;11.90;;;2.43;;
26656;SDS011;14279;50.010;8.260;2023-05-31T09:28:58;7.13;;;2.80;;
26656;SDS011;14279;50.010;8.260;2023-05-31T09:31:24;16.37;;;2.50;;
26656;SDS011;14279;50.010;8.260;2023-05-31T09:33:50;6.70;;;2.70;;
26656;SDS011;14279;50.010;8.260;2023-05-31T09:36:28;6.93;;;2.20;;
26656;SDS011;14279;50.010;8.260;2023-05-31T09:38:58;4.90;;;2.30;;
26656;SDS011;14279;50.010;8.260;2023-05-31T09:41:34;9.53;;;2.30;;
26656;SDS011;14279;50.010;8.260;2023-05-31T09:44:00;9.30;;;2.80;;
26656;SDS011;14279;50.010;8.260;2023-05-31T09:46:26;5.80;;;2.40;;
26656;SDS011;14279;50.010;8.260;2023-05-31T09:49:02;6.90;;;2.20;;
26656;SDS011;14279;50.010;8.260;2023-05-31T09:51:29;4.70;;;2.33;;
26656;SDS011;14279;50.010;8.260;2023-05-31T09:53:57;5.60;;;2.40;;
26656;SDS011;14279;50.010;8.260;2023-05-31T09:56:25;6.00;;;2.20;;
26656;SDS011;14279;50.010;8.260;2023-05-31T09:58:54;6.87;;;2.77;;
26656;SDS011;14279;50.010;8.260;2023-05-31T10:01:21;7.90;;;2.30;;
26656;SDS011;14279;50.010;8.260;2023-05-31T10:03:50;2.93;;;2.03;;
26656;SDS011;14279;50.010;8.260;2023-05-31T10:06:16;5.57;;;2.27;;
26656;SDS011;14279;50.010;8.260;2023-05-31T10:08:42;4.93;;;2.23;;
26656;SDS011;14279;50.010;8.260;2023-05-31T10:11:08;6.03;;;2.30;;
26656;SDS011;14279;50.010;8.260;2023-05-31T10:13:37;6.20;;;2.00;;
26656;SDS011;14279;50.010;8.260;2023-05-31T10:16:07;11.17;;;3.10;;
26656;SDS011;14279;50.010;8.260;2023-05-31T10:18:36;11.63;;;2.43;;
26656;SDS011;14279;50.010;8.260;2023-05-31T10:21:06;4.90;;;2.10;;
26656;SDS011;14279;50.010;8.260;2023-05-31T10:23:35;5.53;;;2.17;;
26656;SDS011;14279;50.010;8.260;2023-05-31T10:26:12;2.70;;;1.77;;
26656;SDS011;14279;50.010;8.260;2023-05-31T10:28:55;2.53;;;2.30;;
26656;SDS011;14279;50.010;8.260;2023-05-31T10:31:31;5.13;;;2.00;;
26656;SDS011;14279;50.010;8.260;2023-05-31T10:36:45;2.87;;;1.87;;
26656;SDS011;14279;50.010;8.260;2023-05-31T10:39:13;7.40;;;2.37;;
26656;SDS011;14279;50.010;8.260;2023-05-31T10:41:48;4.77;;;2.03;;
26656;SDS011;14279;50.010;8.260;2023-05-31T10:44:20;6.13;;;1.97;;
26656;SDS011;14279;50.010;8.260;2023-05-31T10:46:54;3.90;;;1.90;;
26656;SDS011;14279;50.010;8.260;2023-05-31T10:49:25;4.60;;;1.80;;
26656;SDS011;14279;50.010;8.260;2023-05-31T10:52:03;8.97;;;2.40;;
26656;SDS011;14279;50.010;8.260;2023-05-31T10:54:29;7.90;;;2.17;;
26656;SDS011;14279;50.010;8.260;2023-05-31T10:56:57;12.63;;;2.70;;
26656;SDS011;14279;50.010;8.260;2023-05-31T10:59:26;5.50;;;2.00;;
26656;SDS011;14279;50.010;8.260;2023-05-31T11:01:52;4.67;;;2.10;;
26656;SDS011;14279;50.010;8.260;2023-05-31T11:04:21;4.07;;;1.90;;
26656;SDS011;14279;50.010;8.260;2023-05-31T11:07:10;2.33;;;1.73;;
26656;SDS011;14279;50.010;8.260;2023-05-31T11:09:39;9.03;;;1.90;;
26656;SDS011;14279;50.010;8.260;2023-05-31T11:12:05;9.93;;;1.77;;
26656;SDS011;14279;50.010;8.260;2023-05-31T11:14:31;7.37;;;2.30;;
26656;SDS011;14279;50.010;8.260;2023-05-31T11:19:28;3.30;;;1.90;;
26656;SDS011;14279;50.010;8.260;2023-05-31T11:22:13;2.97;;;1.63;;
26656;SDS011;14279;50.010;8.260;2023-05-31T11:27:22;6.30;;;2.00;;
26656;SDS011;14279;50.010;8.260;2023-05-31T11:30:00;3.27;;;2.00;;
26656;SDS011;14279;50.010;8.260;2023-05-31T11:35:03;3.10;;;1.70;;
26656;SDS011;14279;50.010;8.260;2023-05-31T11:37:33;6.90;;;1.77;;
26656;SDS011;14279;50.010;8.260;2023-05-31T11:40:02;2.17;;;1.73;;
26656;SDS011;14279;50.010;8.260;2023-05-31T11:42:33;2.10;;;1.80;;
26656;SDS011;14279;50.010;8.260;2023-05-31T11:45:05;3.57;;;1.77;;
26656;SDS011;14279;50.010;8.260;2023-05-31T11:47:55;12.27;;;1.93;;
26656;SDS011;14279;50.010;8.260;2023-05-31T11:50:20;5.67;;;1.80;;
26656;SDS011;14279;50.010;8.260;2023-05-31T11:52:45;3.30;;;1.80;;
26656;SDS011;14279;50.010;8.260;2023-05-31T11:55:11;5.87;;;1.90;;
26656;SDS011;14279;50.010;8.260;2023-05-31T11:57:40;4.37;;;1.90;;
26656;SDS011;14279;50.010;8.260;2023-05-31T12:00:09;2.83;;;1.80;;
26656;SDS011;14279;50.010;8.260;2023-05-31T12:02:39;5.53;;;2.20;;
26656;SDS011;14279;50.010;8.260;2023-05-31T12:05:05;4.23;;;1.90;;
26656;SDS011;14279;50.010;8.260;2023-05-31T12:07:31;11.33;;;2.10;;
26656;SDS011;14279;50.010;8.260;2023-05-31T12:09:56;4.03;;;2.10;;
26656;SDS011;14279;50.010;8.260;2023-05-31T12:12:22;5.40;;;1.53;;
26656;SDS011;14279;50.010;8.260;2023-05-31T12:14:51;13.23;;;2.40;;
26656;SDS011;14279;50.010;8.260;2023-05-31T12:17:17;3.70;;;2.00;;
26656;SDS011;14279;50.010;8.260;2023-05-31T12:19:42;3.63;;;2.20;;
26656;SDS011;14279;50.010;8.260;2023-05-31T12:22:08;5.30;;;1.60;;
26656;SDS011;14279;50.010;8.260;2023-05-31T12:24:33;4.87;;;1.97;;
26656;SDS011;14279;50.010;8.260;2023-05-31T12:27:01;4.33;;;1.97;;
26656;SDS011;14279;50.010;8.260;2023-05-31T12:29:28;4.97;;;1.90;;
26656;SDS011;14279;50.010;8.260;2023-05-31T12:32:04;5.50;;;2.17;;
26656;SDS011;14279;50.010;8.260;2023-05-31T12:34:34;5.50;;;2.40;;
26656;SDS011;14279;50.010;8.260;2023-05-31T12:37:09;4.60;;;2.10;;
26656;SDS011;14279;50.010;8.260;2023-05-31T12:39:36;6.47;;;1.57;;
26656;SDS011;14279;50.010;8.260;2023-05-31T12:42:02;7.83;;;2.07;;
26656;SDS011;14279;50.010;8.260;2023-05-31T12:44:29;9.83;;;1.80;;
26656;SDS011;14279;50.010;8.260;2023-05-31T12:46:59;5.60;;;2.30;;
26656;SDS011;14279;50.010;8.260;2023-05-31T12:49:27;5.63;;;2.00;;
26656;SDS011;14279;50.010;8.260;2023-05-31T12:52:01;3.50;;;2.00;;
26656;SDS011;14279;50.010;8.260;2023-05-31T12:54:29;4.03;;;1.80;;
26656;SDS011;14279;50.010;8.260;2023-05-31T12:56:56;2.30;;;1.80;;
26656;SDS011;14279;50.010;8.260;2023-05-31T12:59:22;5.53;;;1.50;;
26656;SDS011;14279;50.010;8.260;2023-05-31T13:01:47;4.77;;;2.07;;
26656;SDS011;14279;50.010;8.260;2023-05-31T13:04:13;5.77;;;2.03;;
26656;SDS011;14279;50.010;8.260;2023-05-31T13:06:38;2.23;;;1.40;;
26656;SDS011;14279;50.010;8.260;2023-05-31T13:09:04;4.33;;;1.63;;
26656;SDS011;14279;50.010;8.260;2023-05-31T13:11:32;3.20;;;1.83;;
26656;SDS011;14279;50.010;8.260;2023-05-31T13:13:59;3.67;;;1.47;;
26656;SDS011;14279;50.010;8.260;2023-05-31T13:16:24;4.13;;;1.70;;
26656;SDS011;14279;50.010;8.260;2023-05-31T13:18:49;4.20;;;1.70;;
26656;SDS011;14279;50.010;8.260;2023-05-31T13:21:14;3.10;;;1.57;;
26656;SDS011;14279;50.010;8.260;2023-05-31T13:23:40;5.93;;;1.87;;
26656;SDS011;14279;50.010;8.260;2023-05-31T13:26:05;2.97;;;1.63;;
26656;SDS011;14279;50.010;8.260;2023-05-31T13:28:31;2.57;;;1.67;;
26656;SDS011;14279;50.010;8.260;2023-05-31T13:30:56;2.93;;;1.77;;
26656;SDS011;14279;50.010;8.260;2023-05-31T13:33:21;2.17;;;1.43;;
26656;SDS011;14279;50.010;8.260;2023-05-31T13:35:47;9.20;;;1.70;;
26656;SDS011;14279;50.010;8.260;2023-05-31T13:38:12;4.40;;;1.87;;
26656;SDS011;14279;50.010;8.260;2023-05-31T13:40:37;4.37;;;1.53;;
26656;SDS011;14279;50.010;8.260;2023-05-31T13:43:04;4.93;;;1.67;;
26656;SDS011;14279;50.010;8.260;2023-05-31T13:45:29;2.60;;;1.33;;
26656;SDS011;14279;50.010;8.260;2023-05-31T13:47:54;6.23;;;1.83;;
26656;SDS011;14279;50.010;8.260;2023-05-31T13:50:20;3.10;;;1.87;;
26656;SDS011;14279;50.010;8.260;2023-05-31T13:52:45;4.00;;;1.90;;
26656;SDS011;14279;50.010;8.260;2023-05-31T13:55:10;13.93;;;1.90;;
26656;SDS011;14279;50.010;8.260;2023-05-31T13:57:35;3.63;;;1.97;;
26656;SDS011;14279;50.010;8.260;2023-05-31T14:00:01;12.90;;;2.60;;
26656;SDS011;14279;50.010;8.260;2023-05-31T14:02:29;4.27;;;1.97;;
26656;SDS011;14279;50.010;8.260;2023-05-31T14:04:57;4.70;;;2.00;;
26656;SDS011;14279;50.010;8.260;2023-05-31T14:07:22;4.50;;;1.87;;
26656;SDS011;14279;50.010;8.260;2023-05-31T14:09:47;3.07;;;1.70;;
26656;SDS011;14279;50.010;8.260;2023-05-31T14:12:12;3.80;;;1.60;;
26656;SDS011;14279;50.010;8.260;2023-05-31T14:14:38;6.87;;;1.97;;
26656;SDS011;14279;50.010;8.260;2023-05-31T14:17:04;2.90;;;1.57;;
26656;SDS011;14279;50.010;8.260;2023-05-31T14:19:29;2.87;;;1.67;;
26656;SDS011;14279;50.010;8.260;2023-05-31T14:21:54;4.50;;;2.00;;
26656;SDS011;14279;50.010;8.260;2023-05-31T14:24:20;3.40;;;1.63;;
26656;SDS011;14279;50.010;8.260;2023-05-31T14:26:45;3.03;;;1.60;;
26656;SDS011;14279;50.010;8.260;2023-05-31T14:29:11;7.50;;;1.93;;
26656;SDS011;14279;50.010;8.260;2023-05-31T14:31:36;2.30;;;1.67;;
26656;SDS011;14279;50.010;8.260;2023-05-31T14:34:02;4.80;;;1.43;;
26656;SDS011;14279;50.010;8.260;2023-05-31T14:36:28;4.40;;;1.70;;
26656;SDS011;14279;50.010;8.260;2023-05-31T14:38:53;7.87;;;2.60;;
26656;SDS011;14279;50.010;8.260;2023-05-31T14:41:19;6.60;;;2.07;;
26656;SDS011;14279;50.010;8.260;2023-05-31T14:43:44;3.90;;;1.43;;
26656;SDS011;14279;50.010;8.260;2023-05-31T14:46:11;4.43;;;1.90;;
26656;SDS011;14279;50.010;8.260;2023-05-31T14:48:36;3.77;;;1.90;;
26656;SDS011;14279;50.010;8.260;2023-05-31T14:51:01;4.63;;;1.93;;
26656;SDS011;14279;50.010;8.260;2023-05-31T14:53:26;2.73;;;1.87;;
26656;SDS011;14279;50.010;8.260;2023-05-31T14:55:52;5.17;;;2.23;;
26656;SDS011;14279;50.010;8.260;2023-05-31T14:58:17;3.27;;;2.20;;